sensor_id;sensor_type;location;lat;lon;timestamp;P1;durP1;ratioP1;P2;durP2;ratioP2
22320;SDS011;11328;53.928;18.522;2023-02-04T00:01:01;20.13;;;10.30;;
22320;SDS011;11328;53.928;18.522;2023-02-04T00:03:27;20.40;;;9.50;;
22320;SDS011;11328;53.928;18.522;2023-02-04T00:05:54;18.10;;;10.07;;
22320;SDS011;11328;53.928;18.522;2023-02-04T00:08:21;14.05;;;7.68;;
22320;SDS011;11328;53.928;18.522;2023-02-04T00:10:48;19.10;;;9.00;;
22320;SDS011;11328;53.928;18.522;2023-02-04T00:13:15;17.13;;;7.90;;
22320;SDS011;11328;53.928;18.522;2023-02-04T00:15:42;12.05;;;6.80;;
22320;SDS011;11328;53.928;18.522;2023-02-04T00:18:09;11.90;;;5.85;;
22320;SDS011;11328;53.928;18.522;2023-02-04T00:20:36;12.48;;;6.35;;
22320;SDS011;11328;53.928;18.522;2023-02-04T00:23:03;11.50;;;5.90;;
22320;SDS011;11328;53.928;18.522;2023-02-04T00:25:30;12.20;;;6.10;;
22320;SDS011;11328;53.928;18.522;2023-02-04T00:27:57;10.75;;;5.35;;
22320;SDS011;11328;53.928;18.522;2023-02-04T00:30:24;9.95;;;5.55;;
22320;SDS011;11328;53.928;18.522;2023-02-04T00:32:51;11.30;;;5.28;;
22320;SDS011;11328;53.928;18.522;2023-02-04T00:35:20;12.52;;;5.70;;
22320;SDS011;11328;53.928;18.522;2023-02-04T00:37:48;13.10;;;4.93;;
22320;SDS011;11328;53.928;18.522;2023-02-04T00:40:16;11.95;;;5.20;;
22320;SDS011;11328;53.928;18.522;2023-02-04T00:42:43;9.45;;;4.72;;
22320;SDS011;11328;53.928;18.522;2023-02-04T00:45:10;8.63;;;4.15;;
22320;SDS011;11328;53.928;18.522;2023-02-04T00:47:38;8.73;;;4.45;;
22320;SDS011;11328;53.928;18.522;2023-02-04T00:50:05;8.95;;;4.00;;
22320;SDS011;11328;53.928;18.522;2023-02-04T00:52:32;11.18;;;4.47;;
22320;SDS011;11328;53.928;18.522;2023-02-04T00:54:59;8.70;;;4.05;;
22320;SDS011;11328;53.928;18.522;2023-02-04T00:57:26;8.85;;;3.97;;
22320;SDS011;11328;53.928;18.522;2023-02-04T00:59:53;10.85;;;3.95;;
22320;SDS011;11328;53.928;18.522;2023-02-04T01:02:20;8.95;;;3.75;;
22320;SDS011;11328;53.928;18.522;2023-02-04T01:04:47;7.82;;;4.05;;
22320;SDS011;11328;53.928;18.522;2023-02-04T01:07:14;9.10;;;4.05;;
22320;SDS011;11328;53.928;18.522;2023-02-04T01:09:41;8.80;;;3.80;;
22320;SDS011;11328;53.928;18.522;2023-02-04T01:12:07;6.88;;;3.15;;
22320;SDS011;11328;53.928;18.522;2023-02-04T01:14:34;10.25;;;3.40;;
22320;SDS011;11328;53.928;18.522;2023-02-04T01:17:01;7.00;;;3.50;;
22320;SDS011;11328;53.928;18.522;2023-02-04T01:19:28;9.35;;;3.55;;
22320;SDS011;11328;53.928;18.522;2023-02-04T01:21:55;7.50;;;3.20;;
22320;SDS011;11328;53.928;18.522;2023-02-04T01:24:22;9.63;;;3.53;;
22320;SDS011;11328;53.928;18.522;2023-02-04T01:26:49;7.82;;;3.22;;
22320;SDS011;11328;53.928;18.522;2023-02-04T01:29:16;7.93;;;3.00;;
22320;SDS011;11328;53.928;18.522;2023-02-04T01:31:42;10.38;;;3.50;;
22320;SDS011;11328;53.928;18.522;2023-02-04T01:34:10;7.57;;;3.40;;
22320;SDS011;11328;53.928;18.522;2023-02-04T01:36:36;8.60;;;3.00;;
22320;SDS011;11328;53.928;18.522;2023-02-04T01:39:03;6.88;;;2.47;;
22320;SDS011;11328;53.928;18.522;2023-02-04T01:41:30;7.68;;;2.95;;
22320;SDS011;11328;53.928;18.522;2023-02-04T01:43:57;7.20;;;2.83;;
22320;SDS011;11328;53.928;18.522;2023-02-04T01:46:24;5.53;;;2.38;;
22320;SDS011;11328;53.928;18.522;2023-02-04T01:48:51;8.13;;;2.40;;
22320;SDS011;11328;53.928;18.522;2023-02-04T01:51:22;7.75;;;2.40;;
22320;SDS011;11328;53.928;18.522;2023-02-04T01:53:53;6.47;;;2.30;;
22320;SDS011;11328;53.928;18.522;2023-02-04T01:56:22;11.45;;;2.60;;
22320;SDS011;11328;53.928;18.522;2023-02-04T01:58:54;9.95;;;3.15;;
22320;SDS011;11328;53.928;18.522;2023-02-04T02:04:21;7.70;;;2.85;;
22320;SDS011;11328;53.928;18.522;2023-02-04T02:06:59;7.05;;;2.53;;
22320;SDS011;11328;53.928;18.522;2023-02-04T02:09:31;5.43;;;2.28;;
22320;SDS011;11328;53.928;18.522;2023-02-04T02:12:00;7.28;;;2.63;;
22320;SDS011;11328;53.928;18.522;2023-02-04T02:14:29;8.52;;;2.63;;
22320;SDS011;11328;53.928;18.522;2023-02-04T02:16:56;8.93;;;3.40;;
22320;SDS011;11328;53.928;18.522;2023-02-04T02:19:26;7.57;;;3.17;;
22320;SDS011;11328;53.928;18.522;2023-02-04T02:22:24;7.10;;;2.80;;
22320;SDS011;11328;53.928;18.522;2023-02-04T02:25:06;6.60;;;3.00;;
22320;SDS011;11328;53.928;18.522;2023-02-04T02:27:38;8.82;;;3.17;;
22320;SDS011;11328;53.928;18.522;2023-02-04T02:30:06;7.18;;;3.03;;
22320;SDS011;11328;53.928;18.522;2023-02-04T02:32:36;6.07;;;2.90;;
22320;SDS011;11328;53.928;18.522;2023-02-04T02:35:04;9.77;;;3.30;;
22320;SDS011;11328;53.928;18.522;2023-02-04T02:37:32;10.25;;;3.58;;
22320;SDS011;11328;53.928;18.522;2023-02-04T02:39:59;7.45;;;3.03;;
22320;SDS011;11328;53.928;18.522;2023-02-04T02:42:26;6.80;;;3.30;;
22320;SDS011;11328;53.928;18.522;2023-02-04T02:44:53;5.72;;;2.67;;
22320;SDS011;11328;53.928;18.522;2023-02-04T02:47:20;7.85;;;2.45;;
22320;SDS011;11328;53.928;18.522;2023-02-04T02:49:50;7.32;;;2.40;;
22320;SDS011;11328;53.928;18.522;2023-02-04T02:52:20;6.68;;;2.40;;
22320;SDS011;11328;53.928;18.522;2023-02-04T02:54:48;6.55;;;2.80;;
22320;SDS011;11328;53.928;18.522;2023-02-04T02:57:16;9.05;;;3.28;;
22320;SDS011;11328;53.928;18.522;2023-02-04T02:59:46;7.68;;;3.05;;
22320;SDS011;11328;53.928;18.522;2023-02-04T03:02:15;8.88;;;3.35;;
22320;SDS011;11328;53.928;18.522;2023-02-04T03:04:49;10.80;;;4.85;;
22320;SDS011;11328;53.928;18.522;2023-02-04T03:07:23;8.45;;;3.28;;
22320;SDS011;11328;53.928;18.522;2023-02-04T03:09:51;8.32;;;3.33;;
22320;SDS011;11328;53.928;18.522;2023-02-04T03:12:19;7.10;;;3.15;;
22320;SDS011;11328;53.928;18.522;2023-02-04T03:14:46;7.05;;;3.17;;
22320;SDS011;11328;53.928;18.522;2023-02-04T03:17:13;12.55;;;3.22;;
22320;SDS011;11328;53.928;18.522;2023-02-04T03:19:40;7.55;;;3.30;;
22320;SDS011;11328;53.928;18.522;2023-02-04T03:22:08;8.40;;;3.22;;
22320;SDS011;11328;53.928;18.522;2023-02-04T03:24:35;6.57;;;2.67;;
22320;SDS011;11328;53.928;18.522;2023-02-04T03:27:02;6.53;;;2.47;;
22320;SDS011;11328;53.928;18.522;2023-02-04T03:29:29;7.65;;;3.20;;
22320;SDS011;11328;53.928;18.522;2023-02-04T03:31:56;8.27;;;2.70;;
22320;SDS011;11328;53.928;18.522;2023-02-04T03:34:25;11.05;;;2.92;;
22320;SDS011;11328;53.928;18.522;2023-02-04T03:36:52;7.28;;;2.65;;
22320;SDS011;11328;53.928;18.522;2023-02-04T03:39:19;8.13;;;2.85;;
22320;SDS011;11328;53.928;18.522;2023-02-04T03:41:46;7.05;;;2.83;;
22320;SDS011;11328;53.928;18.522;2023-02-04T03:44:13;8.68;;;2.60;;
22320;SDS011;11328;53.928;18.522;2023-02-04T03:46:40;8.40;;;2.35;;
22320;SDS011;11328;53.928;18.522;2023-02-04T03:49:06;6.47;;;2.10;;
22320;SDS011;11328;53.928;18.522;2023-02-04T03:51:33;6.68;;;2.28;;
22320;SDS011;11328;53.928;18.522;2023-02-04T03:54:00;4.35;;;2.00;;
22320;SDS011;11328;53.928;18.522;2023-02-04T03:56:27;8.32;;;2.33;;
22320;SDS011;11328;53.928;18.522;2023-02-04T03:58:54;6.93;;;2.45;;
22320;SDS011;11328;53.928;18.522;2023-02-04T04:01:22;6.18;;;2.30;;
22320;SDS011;11328;53.928;18.522;2023-02-04T04:03:49;5.07;;;2.22;;
22320;SDS011;11328;53.928;18.522;2023-02-04T04:06:16;3.95;;;1.65;;
22320;SDS011;11328;53.928;18.522;2023-02-04T04:08:43;6.63;;;2.00;;
22320;SDS011;11328;53.928;18.522;2023-02-04T04:11:09;4.85;;;1.75;;
22320;SDS011;11328;53.928;18.522;2023-02-04T04:13:36;4.47;;;1.50;;
22320;SDS011;11328;53.928;18.522;2023-02-04T04:16:03;7.95;;;2.00;;
22320;SDS011;11328;53.928;18.522;2023-02-04T04:18:32;4.47;;;1.48;;
22320;SDS011;11328;53.928;18.522;2023-02-04T04:20:59;5.13;;;1.83;;
22320;SDS011;11328;53.928;18.522;2023-02-04T04:23:26;5.28;;;1.40;;
22320;SDS011;11328;53.928;18.522;2023-02-04T04:25:53;4.25;;;1.30;;
22320;SDS011;11328;53.928;18.522;2023-02-04T04:28:20;6.10;;;1.60;;
22320;SDS011;11328;53.928;18.522;2023-02-04T04:30:46;3.47;;;1.50;;
22320;SDS011;11328;53.928;18.522;2023-02-04T04:33:13;4.35;;;1.30;;
22320;SDS011;11328;53.928;18.522;2023-02-04T04:35:40;4.03;;;1.63;;
22320;SDS011;11328;53.928;18.522;2023-02-04T04:38:07;2.78;;;1.35;;
22320;SDS011;11328;53.928;18.522;2023-02-04T04:40:34;3.80;;;1.40;;
22320;SDS011;11328;53.928;18.522;2023-02-04T04:43:01;5.93;;;1.70;;
22320;SDS011;11328;53.928;18.522;2023-02-04T04:45:28;4.47;;;1.20;;
22320;SDS011;11328;53.928;18.522;2023-02-04T04:47:55;4.05;;;1.70;;
22320;SDS011;11328;53.928;18.522;2023-02-04T04:50:22;4.63;;;1.50;;
22320;SDS011;11328;53.928;18.522;2023-02-04T04:52:49;6.03;;;1.90;;
22320;SDS011;11328;53.928;18.522;2023-02-04T04:55:16;3.15;;;1.58;;
22320;SDS011;11328;53.928;18.522;2023-02-04T04:57:43;4.53;;;1.90;;
22320;SDS011;11328;53.928;18.522;2023-02-04T05:00:10;5.57;;;1.95;;
22320;SDS011;11328;53.928;18.522;2023-02-04T05:02:42;6.35;;;1.90;;
22320;SDS011;11328;53.928;18.522;2023-02-04T05:05:10;7.55;;;2.70;;
22320;SDS011;11328;53.928;18.522;2023-02-04T05:07:38;6.53;;;2.17;;
22320;SDS011;11328;53.928;18.522;2023-02-04T05:10:05;5.75;;;1.90;;
22320;SDS011;11328;53.928;18.522;2023-02-04T05:12:32;5.28;;;2.05;;
22320;SDS011;11328;53.928;18.522;2023-02-04T05:14:59;5.00;;;2.35;;
22320;SDS011;11328;53.928;18.522;2023-02-04T05:17:26;8.90;;;2.35;;
22320;SDS011;11328;53.928;18.522;2023-02-04T05:19:53;3.70;;;1.90;;
22320;SDS011;11328;53.928;18.522;2023-02-04T05:22:20;9.57;;;2.80;;
22320;SDS011;11328;53.928;18.522;2023-02-04T05:24:47;6.07;;;2.22;;
22320;SDS011;11328;53.928;18.522;2023-02-04T05:27:14;6.60;;;2.08;;
22320;SDS011;11328;53.928;18.522;2023-02-04T05:29:41;4.80;;;1.90;;
22320;SDS011;11328;53.928;18.522;2023-02-04T05:32:08;5.57;;;1.63;;
22320;SDS011;11328;53.928;18.522;2023-02-04T05:34:35;5.10;;;1.95;;
22320;SDS011;11328;53.928;18.522;2023-02-04T05:37:03;4.47;;;1.75;;
22320;SDS011;11328;53.928;18.522;2023-02-04T05:39:30;8.82;;;2.80;;
22320;SDS011;11328;53.928;18.522;2023-02-04T05:41:57;6.80;;;2.55;;
22320;SDS011;11328;53.928;18.522;2023-02-04T05:44:24;9.75;;;2.97;;
22320;SDS011;11328;53.928;18.522;2023-02-04T05:46:52;9.07;;;2.88;;
22320;SDS011;11328;53.928;18.522;2023-02-04T05:49:19;7.82;;;2.80;;
22320;SDS011;11328;53.928;18.522;2023-02-04T05:51:46;7.60;;;2.53;;
22320;SDS011;11328;53.928;18.522;2023-02-04T05:54:13;6.28;;;2.10;;
22320;SDS011;11328;53.928;18.522;2023-02-04T05:56:45;9.57;;;2.50;;
22320;SDS011;11328;53.928;18.522;2023-02-04T05:59:13;7.50;;;2.65;;
22320;SDS011;11328;53.928;18.522;2023-02-04T06:01:40;7.82;;;2.45;;
22320;SDS011;11328;53.928;18.522;2023-02-04T06:04:07;7.32;;;2.50;;
22320;SDS011;11328;53.928;18.522;2023-02-04T06:06:34;8.52;;;2.50;;
22320;SDS011;11328;53.928;18.522;2023-02-04T06:09:01;8.75;;;3.35;;
22320;SDS011;11328;53.928;18.522;2023-02-04T06:11:28;7.38;;;3.00;;
22320;SDS011;11328;53.928;18.522;2023-02-04T06:13:55;7.80;;;2.67;;
22320;SDS011;11328;53.928;18.522;2023-02-04T06:16:22;8.27;;;2.67;;
22320;SDS011;11328;53.928;18.522;2023-02-04T06:18:49;9.70;;;3.35;;
22320;SDS011;11328;53.928;18.522;2023-02-04T06:21:16;10.38;;;3.50;;
22320;SDS011;11328;53.928;18.522;2023-02-04T06:23:43;10.60;;;3.55;;
22320;SDS011;11328;53.928;18.522;2023-02-04T06:26:10;7.85;;;2.90;;
22320;SDS011;11328;53.928;18.522;2023-02-04T06:28:37;6.57;;;2.83;;
22320;SDS011;11328;53.928;18.522;2023-02-04T06:31:04;6.32;;;2.72;;
22320;SDS011;11328;53.928;18.522;2023-02-04T06:33:31;5.05;;;1.70;;
22320;SDS011;11328;53.928;18.522;2023-02-04T06:35:58;6.43;;;2.30;;
22320;SDS011;11328;53.928;18.522;2023-02-04T06:38:25;7.03;;;2.70;;
22320;SDS011;11328;53.928;18.522;2023-02-04T06:40:51;6.93;;;2.60;;
22320;SDS011;11328;53.928;18.522;2023-02-04T06:43:19;5.55;;;2.72;;
22320;SDS011;11328;53.928;18.522;2023-02-04T06:45:47;4.57;;;1.90;;
22320;SDS011;11328;53.928;18.522;2023-02-04T06:48:16;6.13;;;2.30;;
22320;SDS011;11328;53.928;18.522;2023-02-04T06:50:44;5.50;;;2.40;;
22320;SDS011;11328;53.928;18.522;2023-02-04T06:53:11;9.23;;;2.97;;
22320;SDS011;11328;53.928;18.522;2023-02-04T06:55:38;7.22;;;2.58;;
22320;SDS011;11328;53.928;18.522;2023-02-04T06:58:05;6.78;;;2.70;;
22320;SDS011;11328;53.928;18.522;2023-02-04T07:00:31;5.65;;;2.55;;
22320;SDS011;11328;53.928;18.522;2023-02-04T07:02:59;6.65;;;2.78;;
22320;SDS011;11328;53.928;18.522;2023-02-04T07:05:26;8.98;;;3.40;;
22320;SDS011;11328;53.928;18.522;2023-02-04T07:07:53;9.27;;;3.50;;
22320;SDS011;11328;53.928;18.522;2023-02-04T07:10:20;8.48;;;3.38;;
22320;SDS011;11328;53.928;18.522;2023-02-04T07:12:47;8.00;;;2.70;;
22320;SDS011;11328;53.928;18.522;2023-02-04T07:15:14;7.63;;;3.50;;
22320;SDS011;11328;53.928;18.522;2023-02-04T07:17:43;9.18;;;3.72;;
22320;SDS011;11328;53.928;18.522;2023-02-04T07:20:10;6.60;;;2.80;;
22320;SDS011;11328;53.928;18.522;2023-02-04T07:22:37;7.30;;;2.50;;
22320;SDS011;11328;53.928;18.522;2023-02-04T07:25:05;5.55;;;2.47;;
22320;SDS011;11328;53.928;18.522;2023-02-04T07:27:32;7.25;;;3.15;;
22320;SDS011;11328;53.928;18.522;2023-02-04T07:29:59;7.22;;;3.00;;
22320;SDS011;11328;53.928;18.522;2023-02-04T07:32:25;8.15;;;3.50;;
22320;SDS011;11328;53.928;18.522;2023-02-04T07:35:00;7.05;;;3.10;;
22320;SDS011;11328;53.928;18.522;2023-02-04T07:37:27;7.55;;;3.10;;
22320;SDS011;11328;53.928;18.522;2023-02-04T07:39:54;7.35;;;3.13;;
22320;SDS011;11328;53.928;18.522;2023-02-04T07:42:21;7.57;;;3.38;;
22320;SDS011;11328;53.928;18.522;2023-02-04T07:44:48;9.98;;;3.08;;
22320;SDS011;11328;53.928;18.522;2023-02-04T07:47:15;8.40;;;2.92;;
22320;SDS011;11328;53.928;18.522;2023-02-04T07:49:42;6.88;;;2.58;;
22320;SDS011;11328;53.928;18.522;2023-02-04T07:52:08;7.00;;;2.85;;
22320;SDS011;11328;53.928;18.522;2023-02-04T07:54:35;8.98;;;3.47;;
22320;SDS011;11328;53.928;18.522;2023-02-04T07:57:02;9.95;;;3.50;;
22320;SDS011;11328;53.928;18.522;2023-02-04T07:59:29;6.28;;;3.05;;
22320;SDS011;11328;53.928;18.522;2023-02-04T08:01:56;7.75;;;3.40;;
22320;SDS011;11328;53.928;18.522;2023-02-04T08:04:23;8.88;;;3.10;;
22320;SDS011;11328;53.928;18.522;2023-02-04T08:06:49;7.35;;;2.92;;
22320;SDS011;11328;53.928;18.522;2023-02-04T08:09:16;7.60;;;3.17;;
22320;SDS011;11328;53.928;18.522;2023-02-04T08:11:43;7.57;;;3.22;;
22320;SDS011;11328;53.928;18.522;2023-02-04T08:14:10;7.07;;;3.15;;
22320;SDS011;11328;53.928;18.522;2023-02-04T08:16:37;7.75;;;3.10;;
22320;SDS011;11328;53.928;18.522;2023-02-04T08:19:04;8.38;;;3.25;;
22320;SDS011;11328;53.928;18.522;2023-02-04T08:21:31;7.65;;;3.35;;
22320;SDS011;11328;53.928;18.522;2023-02-04T08:23:58;9.32;;;3.60;;
22320;SDS011;11328;53.928;18.522;2023-02-04T08:26:25;9.48;;;3.88;;
22320;SDS011;11328;53.928;18.522;2023-02-04T08:28:52;10.23;;;4.10;;
22320;SDS011;11328;53.928;18.522;2023-02-04T08:31:18;9.07;;;4.10;;
22320;SDS011;11328;53.928;18.522;2023-02-04T08:33:46;9.27;;;3.80;;
22320;SDS011;11328;53.928;18.522;2023-02-04T08:36:13;10.35;;;4.32;;
22320;SDS011;11328;53.928;18.522;2023-02-04T08:38:39;10.52;;;4.05;;
22320;SDS011;11328;53.928;18.522;2023-02-04T08:41:06;8.05;;;3.83;;
22320;SDS011;11328;53.928;18.522;2023-02-04T08:43:33;10.48;;;4.15;;
22320;SDS011;11328;53.928;18.522;2023-02-04T08:46:02;9.43;;;3.63;;
22320;SDS011;11328;53.928;18.522;2023-02-04T08:48:29;8.65;;;3.97;;
22320;SDS011;11328;53.928;18.522;2023-02-04T08:50:56;8.30;;;3.67;;
22320;SDS011;11328;53.928;18.522;2023-02-04T08:53:22;11.73;;;4.05;;
22320;SDS011;11328;53.928;18.522;2023-02-04T08:55:49;14.80;;;4.00;;
22320;SDS011;11328;53.928;18.522;2023-02-04T08:58:16;10.90;;;4.60;;
22320;SDS011;11328;53.928;18.522;2023-02-04T09:00:43;11.60;;;4.70;;
22320;SDS011;11328;53.928;18.522;2023-02-04T09:03:10;10.38;;;4.30;;
22320;SDS011;11328;53.928;18.522;2023-02-04T09:05:37;9.95;;;4.20;;
22320;SDS011;11328;53.928;18.522;2023-02-04T09:08:04;12.45;;;4.13;;
22320;SDS011;11328;53.928;18.522;2023-02-04T09:10:31;12.68;;;5.50;;
22320;SDS011;11328;53.928;18.522;2023-02-04T09:12:58;10.07;;;4.20;;
22320;SDS011;11328;53.928;18.522;2023-02-04T09:15:25;11.75;;;4.65;;
22320;SDS011;11328;53.928;18.522;2023-02-04T09:17:52;11.05;;;4.55;;
22320;SDS011;11328;53.928;18.522;2023-02-04T09:20:20;10.15;;;4.13;;
22320;SDS011;11328;53.928;18.522;2023-02-04T09:22:47;8.63;;;4.07;;
22320;SDS011;11328;53.928;18.522;2023-02-04T09:25:15;9.75;;;4.18;;
22320;SDS011;11328;53.928;18.522;2023-02-04T09:27:42;10.45;;;3.83;;
22320;SDS011;11328;53.928;18.522;2023-02-04T09:30:09;9.40;;;4.00;;
22320;SDS011;11328;53.928;18.522;2023-02-04T09:32:37;10.02;;;4.13;;
22320;SDS011;11328;53.928;18.522;2023-02-04T09:35:04;9.20;;;4.15;;
22320;SDS011;11328;53.928;18.522;2023-02-04T09:37:31;10.85;;;3.75;;
22320;SDS011;11328;53.928;18.522;2023-02-04T09:39:58;9.98;;;4.15;;
22320;SDS011;11328;53.928;18.522;2023-02-04T09:42:25;8.93;;;3.80;;
22320;SDS011;11328;53.928;18.522;2023-02-04T09:44:55;7.93;;;3.80;;
22320;SDS011;11328;53.928;18.522;2023-02-04T09:47:24;11.75;;;4.30;;
22320;SDS011;11328;53.928;18.522;2023-02-04T09:49:52;8.85;;;3.85;;
22320;SDS011;11328;53.928;18.522;2023-02-04T09:52:19;8.43;;;3.90;;
22320;SDS011;11328;53.928;18.522;2023-02-04T09:54:49;8.70;;;3.60;;
22320;SDS011;11328;53.928;18.522;2023-02-04T09:57:17;8.15;;;3.58;;
22320;SDS011;11328;53.928;18.522;2023-02-04T09:59:45;7.35;;;3.00;;
22320;SDS011;11328;53.928;18.522;2023-02-04T10:02:23;9.35;;;3.50;;
22320;SDS011;11328;53.928;18.522;2023-02-04T10:04:54;7.78;;;3.33;;
22320;SDS011;11328;53.928;18.522;2023-02-04T10:07:23;7.53;;;3.45;;
22320;SDS011;11328;53.928;18.522;2023-02-04T10:09:52;8.70;;;3.13;;
22320;SDS011;11328;53.928;18.522;2023-02-04T10:12:20;6.05;;;3.00;;
22320;SDS011;11328;53.928;18.522;2023-02-04T10:14:48;8.63;;;3.38;;
22320;SDS011;11328;53.928;18.522;2023-02-04T10:17:17;7.03;;;3.05;;
22320;SDS011;11328;53.928;18.522;2023-02-04T10:19:47;6.28;;;2.92;;
22320;SDS011;11328;53.928;18.522;2023-02-04T10:22:16;11.48;;;6.28;;
22320;SDS011;11328;53.928;18.522;2023-02-04T10:24:48;8.27;;;3.80;;
22320;SDS011;11328;53.928;18.522;2023-02-04T10:27:14;9.10;;;4.25;;
22320;SDS011;11328;53.928;18.522;2023-02-04T10:29:42;8.48;;;4.07;;
22320;SDS011;11328;53.928;18.522;2023-02-04T10:32:29;11.52;;;4.55;;
22320;SDS011;11328;53.928;18.522;2023-02-04T10:34:59;10.75;;;4.60;;
22320;SDS011;11328;53.928;18.522;2023-02-04T10:37:29;9.23;;;3.63;;
22320;SDS011;11328;53.928;18.522;2023-02-04T10:39:57;9.35;;;3.85;;
22320;SDS011;11328;53.928;18.522;2023-02-04T10:42:25;8.93;;;4.47;;
22320;SDS011;11328;53.928;18.522;2023-02-04T10:44:57;9.65;;;3.80;;
22320;SDS011;11328;53.928;18.522;2023-02-04T10:47:26;8.50;;;3.50;;
22320;SDS011;11328;53.928;18.522;2023-02-04T10:49:57;8.35;;;3.67;;
22320;SDS011;11328;53.928;18.522;2023-02-04T10:52:33;10.65;;;4.75;;
22320;SDS011;11328;53.928;18.522;2023-02-04T10:55:05;14.25;;;7.15;;
22320;SDS011;11328;53.928;18.522;2023-02-04T10:57:40;12.23;;;5.97;;
22320;SDS011;11328;53.928;18.522;2023-02-04T11:00:17;11.52;;;4.60;;
22320;SDS011;11328;53.928;18.522;2023-02-04T11:05:32;13.02;;;4.95;;
22320;SDS011;11328;53.928;18.522;2023-02-04T11:08:02;14.98;;;4.47;;
22320;SDS011;11328;53.928;18.522;2023-02-04T11:10:55;8.15;;;3.05;;
22320;SDS011;11328;53.928;18.522;2023-02-04T11:13:27;10.40;;;4.65;;
22320;SDS011;11328;53.928;18.522;2023-02-04T11:16:11;11.48;;;3.95;;
22320;SDS011;11328;53.928;18.522;2023-02-04T11:18:55;9.50;;;3.72;;
22320;SDS011;11328;53.928;18.522;2023-02-04T11:24:20;9.77;;;3.60;;
22320;SDS011;11328;53.928;18.522;2023-02-04T11:27:44;6.82;;;2.85;;
22320;SDS011;11328;53.928;18.522;2023-02-04T11:30:06;7.82;;;3.30;;
22320;SDS011;11328;53.928;18.522;2023-02-04T11:33:00;10.10;;;3.70;;
22320;SDS011;11328;53.928;18.522;2023-02-04T11:37:58;9.85;;;3.92;;
22320;SDS011;11328;53.928;18.522;2023-02-04T11:42:57;10.98;;;4.30;;
22320;SDS011;11328;53.928;18.522;2023-02-04T11:45:35;11.30;;;4.45;;
22320;SDS011;11328;53.928;18.522;2023-02-04T11:48:19;13.27;;;5.53;;
22320;SDS011;11328;53.928;18.522;2023-02-04T11:53:28;13.73;;;5.32;;
22320;SDS011;11328;53.928;18.522;2023-02-04T11:55:57;34.55;;;16.35;;
22320;SDS011;11328;53.928;18.522;2023-02-04T11:58:27;13.68;;;6.18;;
22320;SDS011;11328;53.928;18.522;2023-02-04T12:00:56;14.80;;;6.07;;
22320;SDS011;11328;53.928;18.522;2023-02-04T12:03:24;11.00;;;4.65;;
22320;SDS011;11328;53.928;18.522;2023-02-04T12:08:34;11.35;;;4.20;;
22320;SDS011;11328;53.928;18.522;2023-02-04T12:11:06;11.18;;;4.65;;
22320;SDS011;11328;53.928;18.522;2023-02-04T12:14:04;11.75;;;5.43;;
22320;SDS011;11328;53.928;18.522;2023-02-04T12:16:43;9.30;;;3.75;;
22320;SDS011;11328;53.928;18.522;2023-02-04T12:19:12;10.38;;;4.63;;
22320;SDS011;11328;53.928;18.522;2023-02-04T12:21:39;12.18;;;6.00;;
22320;SDS011;11328;53.928;18.522;2023-02-04T12:24:10;31.88;;;10.85;;
22320;SDS011;11328;53.928;18.522;2023-02-04T12:26:37;22.27;;;9.85;;
22320;SDS011;11328;53.928;18.522;2023-02-04T12:29:04;17.85;;;7.10;;
22320;SDS011;11328;53.928;18.522;2023-02-04T12:31:31;17.30;;;6.15;;
22320;SDS011;11328;53.928;18.522;2023-02-04T12:33:59;12.70;;;5.93;;
22320;SDS011;11328;53.928;18.522;2023-02-04T12:36:26;9.68;;;3.50;;
22320;SDS011;11328;53.928;18.522;2023-02-04T12:38:55;9.02;;;3.30;;
22320;SDS011;11328;53.928;18.522;2023-02-04T12:41:25;9.13;;;3.33;;
22320;SDS011;11328;53.928;18.522;2023-02-04T12:43:53;10.25;;;4.95;;
22320;SDS011;11328;53.928;18.522;2023-02-04T12:46:20;9.70;;;3.70;;
22320;SDS011;11328;53.928;18.522;2023-02-04T12:48:48;7.18;;;3.25;;
22320;SDS011;11328;53.928;18.522;2023-02-04T12:51:15;9.90;;;4.10;;
22320;SDS011;11328;53.928;18.522;2023-02-04T12:53:42;7.65;;;3.33;;
22320;SDS011;11328;53.928;18.522;2023-02-04T12:56:09;8.90;;;3.85;;
22320;SDS011;11328;53.928;18.522;2023-02-04T12:58:35;12.30;;;4.50;;
22320;SDS011;11328;53.928;18.522;2023-02-04T13:01:02;9.88;;;4.55;;
22320;SDS011;11328;53.928;18.522;2023-02-04T13:03:30;12.73;;;5.63;;
22320;SDS011;11328;53.928;18.522;2023-02-04T13:05:57;13.02;;;4.38;;
22320;SDS011;11328;53.928;18.522;2023-02-04T13:08:24;10.25;;;4.00;;
22320;SDS011;11328;53.928;18.522;2023-02-04T13:10:51;8.80;;;4.07;;
22320;SDS011;11328;53.928;18.522;2023-02-04T13:13:19;9.27;;;4.00;;
22320;SDS011;11328;53.928;18.522;2023-02-04T13:15:47;10.60;;;4.32;;
22320;SDS011;11328;53.928;18.522;2023-02-04T13:18:14;11.98;;;4.38;;
22320;SDS011;11328;53.928;18.522;2023-02-04T13:20:42;10.23;;;3.83;;
22320;SDS011;11328;53.928;18.522;2023-02-04T13:23:11;11.13;;;4.60;;
22320;SDS011;11328;53.928;18.522;2023-02-04T13:25:39;11.93;;;4.57;;
22320;SDS011;11328;53.928;18.522;2023-02-04T13:28:06;11.65;;;4.80;;
22320;SDS011;11328;53.928;18.522;2023-02-04T13:30:33;10.02;;;4.43;;
22320;SDS011;11328;53.928;18.522;2023-02-04T13:33:00;12.65;;;4.95;;
22320;SDS011;11328;53.928;18.522;2023-02-04T13:35:27;9.45;;;4.13;;
22320;SDS011;11328;53.928;18.522;2023-02-04T13:37:54;11.05;;;4.28;;
22320;SDS011;11328;53.928;18.522;2023-02-04T13:40:21;11.13;;;3.42;;
22320;SDS011;11328;53.928;18.522;2023-02-04T13:42:48;8.55;;;3.60;;
22320;SDS011;11328;53.928;18.522;2023-02-04T13:45:15;9.18;;;3.60;;
22320;SDS011;11328;53.928;18.522;2023-02-04T13:47:44;9.70;;;3.47;;
22320;SDS011;11328;53.928;18.522;2023-02-04T13:50:14;7.50;;;2.85;;
22320;SDS011;11328;53.928;18.522;2023-02-04T13:52:44;9.18;;;3.47;;
22320;SDS011;11328;53.928;18.522;2023-02-04T13:55:11;9.02;;;3.50;;
22320;SDS011;11328;53.928;18.522;2023-02-04T13:57:38;10.00;;;3.42;;
22320;SDS011;11328;53.928;18.522;2023-02-04T14:00:05;8.85;;;3.42;;
22320;SDS011;11328;53.928;18.522;2023-02-04T14:02:33;11.48;;;4.10;;
22320;SDS011;11328;53.928;18.522;2023-02-04T14:05:00;11.32;;;3.13;;
22320;SDS011;11328;53.928;18.522;2023-02-04T14:07:27;11.95;;;3.50;;
22320;SDS011;11328;53.928;18.522;2023-02-04T14:09:55;8.57;;;3.17;;
22320;SDS011;11328;53.928;18.522;2023-02-04T14:12:22;8.45;;;3.35;;
22320;SDS011;11328;53.928;18.522;2023-02-04T14:14:49;10.38;;;4.10;;
22320;SDS011;11328;53.928;18.522;2023-02-04T14:17:16;13.85;;;4.43;;
22320;SDS011;11328;53.928;18.522;2023-02-04T14:19:43;11.82;;;4.28;;
22320;SDS011;11328;53.928;18.522;2023-02-04T14:22:10;10.85;;;4.00;;
22320;SDS011;11328;53.928;18.522;2023-02-04T14:24:38;10.13;;;4.00;;
22320;SDS011;11328;53.928;18.522;2023-02-04T14:27:08;12.77;;;4.40;;
22320;SDS011;11328;53.928;18.522;2023-02-04T14:29:36;9.05;;;3.92;;
22320;SDS011;11328;53.928;18.522;2023-02-04T14:32:03;11.27;;;4.30;;
22320;SDS011;11328;53.928;18.522;2023-02-04T14:34:30;10.52;;;3.95;;
22320;SDS011;11328;53.928;18.522;2023-02-04T14:36:57;9.35;;;3.55;;
22320;SDS011;11328;53.928;18.522;2023-02-04T14:39:24;8.05;;;3.50;;
22320;SDS011;11328;53.928;18.522;2023-02-04T14:41:51;14.23;;;4.10;;
22320;SDS011;11328;53.928;18.522;2023-02-04T14:44:18;11.50;;;4.75;;
22320;SDS011;11328;53.928;18.522;2023-02-04T14:46:46;9.63;;;3.58;;
22320;SDS011;11328;53.928;18.522;2023-02-04T14:49:16;7.95;;;3.35;;
22320;SDS011;11328;53.928;18.522;2023-02-04T14:51:43;9.45;;;4.13;;
22320;SDS011;11328;53.928;18.522;2023-02-04T14:54:11;11.15;;;4.28;;
22320;SDS011;11328;53.928;18.522;2023-02-04T14:56:38;11.68;;;4.38;;